Rogers Park, Illinois
Current Conditions -  °F | °C
As of 2:51 AM on Monday 24 Nov 2014 (Local Time) from KORD Reporting Station
Overcast Overcast  
Wind Chill:   Ceiling: 600
Heat Index:   Visibility: 10mi
Dew Point:   Wind: 8mph
Humidity: 96%   Direction: 250°WSW
Pressure: 29.07"   Gusts: NA
Location:  41.991°N, 87.6654°W
Report Text: KORD 240851Z 25007KT 10SM OVC006 09/08 A2907 RMK AO2 RAE37 SLP845 P0001 60007 T00890083 55004
Loading
Personal Weather Stations






























Interactive Weather Map New forecast layout! Learn more

10-Day Weather Forecast

Advertisements
Track Severe Weather on mobile